sensor_id;sensor_type;location;lat;lon;timestamp;P1;durP1;ratioP1;P2;durP2;ratioP2
12768;SDS011;6448;48.916;8.990;2024-03-08T00:01:11;11.30;;;10.40;;
12768;SDS011;6448;48.916;8.990;2024-03-08T00:02:12;11.15;;;10.30;;
12768;SDS011;6448;48.916;8.990;2024-03-08T00:03:14;10.98;;;10.07;;
12768;SDS011;6448;48.916;8.990;2024-03-08T00:04:15;10.85;;;9.95;;
12768;SDS011;6448;48.916;8.990;2024-03-08T00:05:17;11.13;;;10.23;;
12768;SDS011;6448;48.916;8.990;2024-03-08T00:06:18;11.25;;;10.35;;
12768;SDS011;6448;48.916;8.990;2024-03-08T00:07:20;11.55;;;10.65;;
12768;SDS011;6448;48.916;8.990;2024-03-08T00:08:21;11.00;;;10.10;;
12768;SDS011;6448;48.916;8.990;2024-03-08T00:09:24;10.65;;;9.75;;
12768;SDS011;6448;48.916;8.990;2024-03-08T00:10:27;11.40;;;10.40;;
12768;SDS011;6448;48.916;8.990;2024-03-08T00:11:29;10.48;;;9.68;;
12768;SDS011;6448;48.916;8.990;2024-03-08T00:12:32;10.95;;;10.05;;
12768;SDS011;6448;48.916;8.990;2024-03-08T00:13:34;11.07;;;10.18;;
12768;SDS011;6448;48.916;8.990;2024-03-08T00:14:35;11.32;;;10.43;;
12768;SDS011;6448;48.916;8.990;2024-03-08T00:15:38;10.82;;;9.93;;
12768;SDS011;6448;48.916;8.990;2024-03-08T00:16:39;11.13;;;10.27;;
12768;SDS011;6448;48.916;8.990;2024-03-08T00:17:44;10.63;;;9.77;;
12768;SDS011;6448;48.916;8.990;2024-03-08T00:18:46;10.77;;;9.88;;
12768;SDS011;6448;48.916;8.990;2024-03-08T00:19:49;11.00;;;10.10;;
12768;SDS011;6448;48.916;8.990;2024-03-08T00:20:50;10.63;;;9.82;;
12768;SDS011;6448;48.916;8.990;2024-03-08T00:21:52;10.90;;;10.00;;
12768;SDS011;6448;48.916;8.990;2024-03-08T00:22:53;11.00;;;10.10;;
12768;SDS011;6448;48.916;8.990;2024-03-08T00:23:57;11.23;;;10.32;;
12768;SDS011;6448;48.916;8.990;2024-03-08T00:25:00;10.55;;;9.75;;
12768;SDS011;6448;48.916;8.990;2024-03-08T00:26:02;10.95;;;10.13;;
12768;SDS011;6448;48.916;8.990;2024-03-08T00:27:04;10.65;;;9.85;;
12768;SDS011;6448;48.916;8.990;2024-03-08T00:28:06;11.48;;;10.57;;
12768;SDS011;6448;48.916;8.990;2024-03-08T00:29:07;11.23;;;10.35;;
12768;SDS011;6448;48.916;8.990;2024-03-08T00:30:08;10.98;;;10.10;;
12768;SDS011;6448;48.916;8.990;2024-03-08T00:31:13;11.57;;;10.65;;
12768;SDS011;6448;48.916;8.990;2024-03-08T00:32:14;10.52;;;9.73;;
12768;SDS011;6448;48.916;8.990;2024-03-08T00:33:17;10.75;;;9.95;;
12768;SDS011;6448;48.916;8.990;2024-03-08T00:34:17;10.93;;;10.07;;
12768;SDS011;6448;48.916;8.990;2024-03-08T00:35:19;11.25;;;10.35;;
12768;SDS011;6448;48.916;8.990;2024-03-08T00:36:20;11.40;;;10.50;;
12768;SDS011;6448;48.916;8.990;2024-03-08T00:37:22;10.68;;;9.80;;
12768;SDS011;6448;48.916;8.990;2024-03-08T00:38:23;10.93;;;10.10;;
12768;SDS011;6448;48.916;8.990;2024-03-08T00:39:24;10.73;;;9.93;;
12768;SDS011;6448;48.916;8.990;2024-03-08T00:40:27;10.65;;;9.85;;
12768;SDS011;6448;48.916;8.990;2024-03-08T00:41:29;11.00;;;10.10;;
12768;SDS011;6448;48.916;8.990;2024-03-08T00:42:30;11.48;;;10.57;;
12768;SDS011;6448;48.916;8.990;2024-03-08T00:43:33;11.32;;;10.43;;
12768;SDS011;6448;48.916;8.990;2024-03-08T00:44:34;11.07;;;10.13;;
12768;SDS011;6448;48.916;8.990;2024-03-08T00:45:36;11.15;;;10.32;;
12768;SDS011;6448;48.916;8.990;2024-03-08T00:46:37;11.77;;;10.77;;
12768;SDS011;6448;48.916;8.990;2024-03-08T00:47:39;10.80;;;10.00;;
12768;SDS011;6448;48.916;8.990;2024-03-08T00:48:39;10.75;;;9.95;;
12768;SDS011;6448;48.916;8.990;2024-03-08T00:49:43;11.05;;;10.15;;
12768;SDS011;6448;48.916;8.990;2024-03-08T00:50:44;10.80;;;9.90;;
12768;SDS011;6448;48.916;8.990;2024-03-08T00:51:46;10.63;;;9.82;;
12768;SDS011;6448;48.916;8.990;2024-03-08T00:52:47;10.93;;;10.02;;
12768;SDS011;6448;48.916;8.990;2024-03-08T00:53:49;10.40;;;9.60;;
12768;SDS011;6448;48.916;8.990;2024-03-08T00:54:49;10.23;;;9.43;;
12768;SDS011;6448;48.916;8.990;2024-03-08T00:55:52;10.57;;;9.75;;
12768;SDS011;6448;48.916;8.990;2024-03-08T00:56:55;10.80;;;9.90;;
12768;SDS011;6448;48.916;8.990;2024-03-08T00:57:56;10.60;;;9.77;;
12768;SDS011;6448;48.916;8.990;2024-03-08T00:58:57;10.27;;;9.48;;
12768;SDS011;6448;48.916;8.990;2024-03-08T00:59:59;10.73;;;9.88;;
12768;SDS011;6448;48.916;8.990;2024-03-08T01:01:00;10.80;;;9.90;;
12768;SDS011;6448;48.916;8.990;2024-03-08T01:02:02;10.60;;;9.70;;
12768;SDS011;6448;48.916;8.990;2024-03-08T01:03:03;10.30;;;9.50;;
12768;SDS011;6448;48.916;8.990;2024-03-08T01:04:05;10.75;;;9.85;;
12768;SDS011;6448;48.916;8.990;2024-03-08T01:05:06;10.75;;;9.85;;
12768;SDS011;6448;48.916;8.990;2024-03-08T01:06:08;10.45;;;9.60;;
12768;SDS011;6448;48.916;8.990;2024-03-08T01:07:09;11.20;;;10.20;;
12768;SDS011;6448;48.916;8.990;2024-03-08T01:08:11;10.65;;;9.75;;
12768;SDS011;6448;48.916;8.990;2024-03-08T01:09:11;10.37;;;9.57;;
12768;SDS011;6448;48.916;8.990;2024-03-08T01:10:13;11.43;;;10.45;;
12768;SDS011;6448;48.916;8.990;2024-03-08T01:11:15;10.60;;;9.73;;
12768;SDS011;6448;48.916;8.990;2024-03-08T01:12:17;11.10;;;10.20;;
12768;SDS011;6448;48.916;8.990;2024-03-08T01:13:18;10.85;;;9.95;;
12768;SDS011;6448;48.916;8.990;2024-03-08T01:14:20;10.35;;;9.55;;
12768;SDS011;6448;48.916;8.990;2024-03-08T01:15:22;10.82;;;9.95;;
12768;SDS011;6448;48.916;8.990;2024-03-08T01:16:24;10.95;;;10.05;;
12768;SDS011;6448;48.916;8.990;2024-03-08T01:17:25;10.07;;;9.27;;
12768;SDS011;6448;48.916;8.990;2024-03-08T01:18:27;10.18;;;9.38;;
12768;SDS011;6448;48.916;8.990;2024-03-08T01:19:27;10.98;;;10.07;;
12768;SDS011;6448;48.916;8.990;2024-03-08T01:20:32;9.98;;;9.18;;
12768;SDS011;6448;48.916;8.990;2024-03-08T01:21:33;10.85;;;9.95;;
12768;SDS011;6448;48.916;8.990;2024-03-08T01:22:34;10.50;;;9.70;;
12768;SDS011;6448;48.916;8.990;2024-03-08T01:23:35;10.10;;;9.30;;
12768;SDS011;6448;48.916;8.990;2024-03-08T01:24:37;9.98;;;9.18;;
12768;SDS011;6448;48.916;8.990;2024-03-08T01:25:38;10.48;;;9.68;;
12768;SDS011;6448;48.916;8.990;2024-03-08T01:26:42;10.63;;;9.73;;
12768;SDS011;6448;48.916;8.990;2024-03-08T01:27:43;10.68;;;9.77;;
12768;SDS011;6448;48.916;8.990;2024-03-08T01:28:45;10.52;;;9.73;;
12768;SDS011;6448;48.916;8.990;2024-03-08T01:29:45;10.47;;;9.63;;
12768;SDS011;6448;48.916;8.990;2024-03-08T01:30:47;10.80;;;9.90;;
12768;SDS011;6448;48.916;8.990;2024-03-08T01:31:50;10.98;;;10.07;;
12768;SDS011;6448;48.916;8.990;2024-03-08T01:32:52;10.77;;;9.88;;
12768;SDS011;6448;48.916;8.990;2024-03-08T01:33:53;10.98;;;10.07;;
12768;SDS011;6448;48.916;8.990;2024-03-08T01:34:56;10.52;;;9.63;;
12768;SDS011;6448;48.916;8.990;2024-03-08T01:35:57;10.05;;;9.25;;
12768;SDS011;6448;48.916;8.990;2024-03-08T01:36:59;10.90;;;10.02;;
12768;SDS011;6448;48.916;8.990;2024-03-08T01:38:00;10.50;;;9.70;;
12768;SDS011;6448;48.916;8.990;2024-03-08T01:39:05;10.55;;;9.65;;
12768;SDS011;6448;48.916;8.990;2024-03-08T01:40:08;10.57;;;9.75;;
12768;SDS011;6448;48.916;8.990;2024-03-08T01:41:10;10.30;;;9.50;;
12768;SDS011;6448;48.916;8.990;2024-03-08T01:42:14;10.43;;;9.55;;
12768;SDS011;6448;48.916;8.990;2024-03-08T01:43:18;10.45;;;9.65;;
12768;SDS011;6448;48.916;8.990;2024-03-08T01:44:19;10.70;;;9.90;;
12768;SDS011;6448;48.916;8.990;2024-03-08T01:45:21;10.95;;;10.07;;
12768;SDS011;6448;48.916;8.990;2024-03-08T01:46:22;10.70;;;9.80;;
12768;SDS011;6448;48.916;8.990;2024-03-08T01:47:24;10.23;;;9.38;;
12768;SDS011;6448;48.916;8.990;2024-03-08T01:48:25;10.05;;;9.25;;
12768;SDS011;6448;48.916;8.990;2024-03-08T01:49:29;10.63;;;9.82;;
12768;SDS011;6448;48.916;8.990;2024-03-08T01:50:30;10.60;;;9.70;;
12768;SDS011;6448;48.916;8.990;2024-03-08T01:51:31;10.70;;;9.90;;
12768;SDS011;6448;48.916;8.990;2024-03-08T01:52:32;9.93;;;9.13;;
12768;SDS011;6448;48.916;8.990;2024-03-08T01:53:36;11.00;;;10.10;;
12768;SDS011;6448;48.916;8.990;2024-03-08T01:54:36;10.85;;;9.95;;
12768;SDS011;6448;48.916;8.990;2024-03-08T01:55:41;10.10;;;9.30;;
12768;SDS011;6448;48.916;8.990;2024-03-08T01:56:43;10.73;;;9.90;;
12768;SDS011;6448;48.916;8.990;2024-03-08T01:57:46;10.57;;;9.77;;
12768;SDS011;6448;48.916;8.990;2024-03-08T01:58:48;10.65;;;9.75;;
12768;SDS011;6448;48.916;8.990;2024-03-08T01:59:50;11.85;;;10.85;;
12768;SDS011;6448;48.916;8.990;2024-03-08T02:00:54;11.07;;;10.18;;
12768;SDS011;6448;48.916;8.990;2024-03-08T02:01:59;10.77;;;9.88;;
12768;SDS011;6448;48.916;8.990;2024-03-08T02:03:01;11.30;;;10.40;;
12768;SDS011;6448;48.916;8.990;2024-03-08T02:04:04;10.57;;;9.77;;
12768;SDS011;6448;48.916;8.990;2024-03-08T02:05:06;10.82;;;9.98;;
12768;SDS011;6448;48.916;8.990;2024-03-08T02:06:08;11.05;;;10.15;;
12768;SDS011;6448;48.916;8.990;2024-03-08T02:07:10;10.95;;;10.05;;
12768;SDS011;6448;48.916;8.990;2024-03-08T02:08:12;10.70;;;9.82;;
12768;SDS011;6448;48.916;8.990;2024-03-08T02:09:14;11.10;;;10.20;;
12768;SDS011;6448;48.916;8.990;2024-03-08T02:10:17;10.52;;;9.73;;
12768;SDS011;6448;48.916;8.990;2024-03-08T02:11:18;11.00;;;10.10;;
12768;SDS011;6448;48.916;8.990;2024-03-08T02:12:20;11.38;;;10.48;;
12768;SDS011;6448;48.916;8.990;2024-03-08T02:13:23;11.45;;;10.55;;
12768;SDS011;6448;48.916;8.990;2024-03-08T02:14:24;11.38;;;10.48;;
12768;SDS011;6448;48.916;8.990;2024-03-08T02:15:25;11.23;;;10.23;;
12768;SDS011;6448;48.916;8.990;2024-03-08T02:16:27;11.05;;;10.18;;
12768;SDS011;6448;48.916;8.990;2024-03-08T02:17:28;10.80;;;9.90;;
12768;SDS011;6448;48.916;8.990;2024-03-08T02:18:30;11.13;;;10.23;;
12768;SDS011;6448;48.916;8.990;2024-03-08T02:19:32;11.05;;;10.15;;
12768;SDS011;6448;48.916;8.990;2024-03-08T02:20:37;10.88;;;9.98;;
12768;SDS011;6448;48.916;8.990;2024-03-08T02:21:38;10.75;;;9.85;;
12768;SDS011;6448;48.916;8.990;2024-03-08T02:22:39;11.02;;;10.13;;
12768;SDS011;6448;48.916;8.990;2024-03-08T02:23:40;11.35;;;10.45;;
12768;SDS011;6448;48.916;8.990;2024-03-08T02:24:42;10.90;;;10.00;;
12768;SDS011;6448;48.916;8.990;2024-03-08T02:25:43;10.93;;;10.02;;
12768;SDS011;6448;48.916;8.990;2024-03-08T02:26:45;11.52;;;10.63;;
12768;SDS011;6448;48.916;8.990;2024-03-08T02:27:46;11.07;;;10.18;;
12768;SDS011;6448;48.916;8.990;2024-03-08T02:28:47;10.73;;;9.90;;
12768;SDS011;6448;48.916;8.990;2024-03-08T02:29:49;10.65;;;9.85;;
12768;SDS011;6448;48.916;8.990;2024-03-08T02:30:52;10.98;;;10.07;;
12768;SDS011;6448;48.916;8.990;2024-03-08T02:31:54;11.25;;;10.35;;
12768;SDS011;6448;48.916;8.990;2024-03-08T02:32:57;11.32;;;10.43;;
12768;SDS011;6448;48.916;8.990;2024-03-08T02:33:59;11.30;;;10.40;;
12768;SDS011;6448;48.916;8.990;2024-03-08T02:35:00;10.80;;;10.00;;
12768;SDS011;6448;48.916;8.990;2024-03-08T02:36:03;11.23;;;10.33;;
12768;SDS011;6448;48.916;8.990;2024-03-08T02:37:06;11.00;;;10.10;;
12768;SDS011;6448;48.916;8.990;2024-03-08T02:38:08;11.02;;;10.13;;
12768;SDS011;6448;48.916;8.990;2024-03-08T02:39:10;11.13;;;10.23;;
12768;SDS011;6448;48.916;8.990;2024-03-08T02:40:11;10.77;;;9.93;;
12768;SDS011;6448;48.916;8.990;2024-03-08T02:41:13;11.00;;;10.10;;
12768;SDS011;6448;48.916;8.990;2024-03-08T02:42:14;11.33;;;10.43;;
12768;SDS011;6448;48.916;8.990;2024-03-08T02:43:16;11.00;;;10.10;;
12768;SDS011;6448;48.916;8.990;2024-03-08T02:44:17;11.27;;;10.38;;
12768;SDS011;6448;48.916;8.990;2024-03-08T02:45:21;10.88;;;9.98;;
12768;SDS011;6448;48.916;8.990;2024-03-08T02:46:22;11.00;;;10.10;;
12768;SDS011;6448;48.916;8.990;2024-03-08T02:47:24;11.18;;;10.27;;
12768;SDS011;6448;48.916;8.990;2024-03-08T02:48:26;11.32;;;10.35;;
12768;SDS011;6448;48.916;8.990;2024-03-08T02:49:27;10.68;;;9.88;;
12768;SDS011;6448;48.916;8.990;2024-03-08T02:50:28;10.65;;;9.80;;
12768;SDS011;6448;48.916;8.990;2024-03-08T02:51:30;11.00;;;10.10;;
12768;SDS011;6448;48.916;8.990;2024-03-08T02:52:35;10.95;;;10.05;;
12768;SDS011;6448;48.916;8.990;2024-03-08T02:53:36;11.27;;;10.37;;
12768;SDS011;6448;48.916;8.990;2024-03-08T02:54:37;10.38;;;9.57;;
12768;SDS011;6448;48.916;8.990;2024-03-08T02:55:38;10.50;;;9.60;;
12768;SDS011;6448;48.916;8.990;2024-03-08T02:56:41;11.00;;;10.10;;
12768;SDS011;6448;48.916;8.990;2024-03-08T02:57:41;11.05;;;10.15;;
12768;SDS011;6448;48.916;8.990;2024-03-08T02:58:43;10.52;;;9.73;;
12768;SDS011;6448;48.916;8.990;2024-03-08T02:59:48;10.60;;;9.80;;
12768;SDS011;6448;48.916;8.990;2024-03-08T03:00:50;11.18;;;10.27;;
12768;SDS011;6448;48.916;8.990;2024-03-08T03:01:51;11.13;;;10.23;;
12768;SDS011;6448;48.916;8.990;2024-03-08T03:02:52;10.93;;;10.02;;
12768;SDS011;6448;48.916;8.990;2024-03-08T03:03:54;11.02;;;10.20;;
12768;SDS011;6448;48.916;8.990;2024-03-08T03:04:56;11.05;;;10.05;;
12768;SDS011;6448;48.916;8.990;2024-03-08T03:05:57;11.07;;;10.18;;
12768;SDS011;6448;48.916;8.990;2024-03-08T03:07:00;10.85;;;9.95;;
12768;SDS011;6448;48.916;8.990;2024-03-08T03:08:00;11.00;;;10.10;;
12768;SDS011;6448;48.916;8.990;2024-03-08T03:09:04;10.80;;;9.90;;
12768;SDS011;6448;48.916;8.990;2024-03-08T03:10:06;10.88;;;9.98;;
12768;SDS011;6448;48.916;8.990;2024-03-08T03:11:09;10.85;;;9.95;;
12768;SDS011;6448;48.916;8.990;2024-03-08T03:12:10;10.82;;;9.93;;
12768;SDS011;6448;48.916;8.990;2024-03-08T03:13:12;10.75;;;9.90;;
12768;SDS011;6448;48.916;8.990;2024-03-08T03:14:14;11.05;;;10.25;;
12768;SDS011;6448;48.916;8.990;2024-03-08T03:15:16;11.05;;;10.05;;
12768;SDS011;6448;48.916;8.990;2024-03-08T03:16:17;10.50;;;9.70;;
12768;SDS011;6448;48.916;8.990;2024-03-08T03:17:20;11.10;;;10.20;;
12768;SDS011;6448;48.916;8.990;2024-03-08T03:18:20;10.88;;;9.98;;
12768;SDS011;6448;48.916;8.990;2024-03-08T03:19:23;11.02;;;10.13;;
12768;SDS011;6448;48.916;8.990;2024-03-08T03:20:25;11.32;;;10.43;;
12768;SDS011;6448;48.916;8.990;2024-03-08T03:21:27;11.03;;;10.13;;
12768;SDS011;6448;48.916;8.990;2024-03-08T03:22:33;11.13;;;10.23;;
12768;SDS011;6448;48.916;8.990;2024-03-08T03:23:34;10.77;;;9.90;;
12768;SDS011;6448;48.916;8.990;2024-03-08T03:24:37;11.02;;;10.13;;
12768;SDS011;6448;48.916;8.990;2024-03-08T03:25:38;10.88;;;9.98;;
12768;SDS011;6448;48.916;8.990;2024-03-08T03:26:41;11.25;;;10.35;;
12768;SDS011;6448;48.916;8.990;2024-03-08T03:27:43;11.00;;;10.10;;
12768;SDS011;6448;48.916;8.990;2024-03-08T03:28:46;11.13;;;10.23;;
12768;SDS011;6448;48.916;8.990;2024-03-08T03:29:48;11.00;;;10.13;;
12768;SDS011;6448;48.916;8.990;2024-03-08T03:30:50;10.38;;;9.57;;
12768;SDS011;6448;48.916;8.990;2024-03-08T03:31:53;10.98;;;10.00;;
12768;SDS011;6448;48.916;8.990;2024-03-08T03:32:54;10.95;;;10.05;;
12768;SDS011;6448;48.916;8.990;2024-03-08T03:33:57;11.23;;;10.30;;
12768;SDS011;6448;48.916;8.990;2024-03-08T03:35:01;11.50;;;10.60;;
12768;SDS011;6448;48.916;8.990;2024-03-08T03:36:05;10.73;;;9.82;;
12768;SDS011;6448;48.916;8.990;2024-03-08T03:37:09;11.17;;;10.27;;
12768;SDS011;6448;48.916;8.990;2024-03-08T03:38:13;10.73;;;9.85;;
12768;SDS011;6448;48.916;8.990;2024-03-08T03:39:14;11.20;;;10.30;;
12768;SDS011;6448;48.916;8.990;2024-03-08T03:40:20;11.68;;;10.75;;
12768;SDS011;6448;48.916;8.990;2024-03-08T03:41:20;10.55;;;9.75;;
12768;SDS011;6448;48.916;8.990;2024-03-08T03:42:22;10.95;;;10.10;;
12768;SDS011;6448;48.916;8.990;2024-03-08T03:43:24;10.60;;;9.70;;
12768;SDS011;6448;48.916;8.990;2024-03-08T03:44:26;11.43;;;10.43;;
12768;SDS011;6448;48.916;8.990;2024-03-08T03:45:26;11.23;;;10.32;;
12768;SDS011;6448;48.916;8.990;2024-03-08T03:46:28;10.93;;;10.02;;
12768;SDS011;6448;48.916;8.990;2024-03-08T03:47:29;10.80;;;9.90;;
12768;SDS011;6448;48.916;8.990;2024-03-08T03:48:30;11.07;;;10.17;;
12768;SDS011;6448;48.916;8.990;2024-03-08T03:49:32;10.48;;;9.60;;
12768;SDS011;6448;48.916;8.990;2024-03-08T03:50:33;10.97;;;10.00;;
12768;SDS011;6448;48.916;8.990;2024-03-08T03:51:35;10.93;;;10.02;;
12768;SDS011;6448;48.916;8.990;2024-03-08T03:52:36;11.20;;;10.30;;
12768;SDS011;6448;48.916;8.990;2024-03-08T03:53:39;10.38;;;9.57;;
12768;SDS011;6448;48.916;8.990;2024-03-08T03:54:40;10.75;;;9.95;;
12768;SDS011;6448;48.916;8.990;2024-03-08T03:55:42;10.48;;;9.57;;
12768;SDS011;6448;48.916;8.990;2024-03-08T03:56:43;10.35;;;9.55;;
12768;SDS011;6448;48.916;8.990;2024-03-08T03:57:45;11.20;;;10.30;;
12768;SDS011;6448;48.916;8.990;2024-03-08T03:58:46;10.45;;;9.60;;
12768;SDS011;6448;48.916;8.990;2024-03-08T03:59:47;9.98;;;9.18;;
12768;SDS011;6448;48.916;8.990;2024-03-08T04:00:48;10.37;;;9.47;;
12768;SDS011;6448;48.916;8.990;2024-03-08T04:01:50;10.48;;;9.60;;
12768;SDS011;6448;48.916;8.990;2024-03-08T04:02:50;10.63;;;9.73;;
12768;SDS011;6448;48.916;8.990;2024-03-08T04:03:52;10.57;;;9.70;;
12768;SDS011;6448;48.916;8.990;2024-03-08T04:04:53;10.70;;;9.90;;
12768;SDS011;6448;48.916;8.990;2024-03-08T04:05:55;10.63;;;9.77;;
12768;SDS011;6448;48.916;8.990;2024-03-08T04:06:56;9.82;;;9.02;;
12768;SDS011;6448;48.916;8.990;2024-03-08T04:07:58;10.45;;;9.65;;
12768;SDS011;6448;48.916;8.990;2024-03-08T04:09:00;10.02;;;9.23;;
12768;SDS011;6448;48.916;8.990;2024-03-08T04:10:02;10.07;;;9.27;;
12768;SDS011;6448;48.916;8.990;2024-03-08T04:11:03;9.98;;;9.18;;
12768;SDS011;6448;48.916;8.990;2024-03-08T04:12:05;10.20;;;9.40;;
12768;SDS011;6448;48.916;8.990;2024-03-08T04:13:07;10.10;;;9.30;;
12768;SDS011;6448;48.916;8.990;2024-03-08T04:14:09;10.40;;;9.60;;
12768;SDS011;6448;48.916;8.990;2024-03-08T04:15:11;9.80;;;9.05;;
12768;SDS011;6448;48.916;8.990;2024-03-08T04:16:12;10.05;;;9.25;;
12768;SDS011;6448;48.916;8.990;2024-03-08T04:17:13;10.00;;;9.20;;
12768;SDS011;6448;48.916;8.990;2024-03-08T04:18:14;9.90;;;9.10;;
12768;SDS011;6448;48.916;8.990;2024-03-08T04:19:16;9.90;;;9.10;;
12768;SDS011;6448;48.916;8.990;2024-03-08T04:20:17;10.10;;;9.25;;
12768;SDS011;6448;48.916;8.990;2024-03-08T04:21:18;9.80;;;9.00;;
12768;SDS011;6448;48.916;8.990;2024-03-08T04:22:19;10.50;;;9.70;;
12768;SDS011;6448;48.916;8.990;2024-03-08T04:23:21;9.95;;;9.15;;
12768;SDS011;6448;48.916;8.990;2024-03-08T04:24:24;10.10;;;9.30;;
12768;SDS011;6448;48.916;8.990;2024-03-08T04:25:25;10.00;;;9.20;;
12768;SDS011;6448;48.916;8.990;2024-03-08T04:26:27;9.68;;;8.88;;
12768;SDS011;6448;48.916;8.990;2024-03-08T04:27:28;10.10;;;9.30;;
12768;SDS011;6448;48.916;8.990;2024-03-08T04:28:29;9.90;;;9.10;;
12768;SDS011;6448;48.916;8.990;2024-03-08T04:29:31;9.65;;;8.95;;
12768;SDS011;6448;48.916;8.990;2024-03-08T04:30:33;10.00;;;9.20;;
12768;SDS011;6448;48.916;8.990;2024-03-08T04:31:37;9.77;;;8.98;;
12768;SDS011;6448;48.916;8.990;2024-03-08T04:32:38;9.70;;;8.98;;
12768;SDS011;6448;48.916;8.990;2024-03-08T04:33:41;10.30;;;9.50;;
12768;SDS011;6448;48.916;8.990;2024-03-08T04:34:42;10.80;;;9.90;;
12768;SDS011;6448;48.916;8.990;2024-03-08T04:35:45;9.77;;;8.98;;
12768;SDS011;6448;48.916;8.990;2024-03-08T04:36:46;10.00;;;9.20;;
12768;SDS011;6448;48.916;8.990;2024-03-08T04:37:48;10.00;;;9.20;;
12768;SDS011;6448;48.916;8.990;2024-03-08T04:38:51;10.30;;;9.50;;
12768;SDS011;6448;48.916;8.990;2024-03-08T04:39:53;10.23;;;9.43;;
12768;SDS011;6448;48.916;8.990;2024-03-08T04:40:55;9.90;;;9.10;;
12768;SDS011;6448;48.916;8.990;2024-03-08T04:41:56;9.95;;;9.15;;
12768;SDS011;6448;48.916;8.990;2024-03-08T04:43:03;10.30;;;9.40;;
12768;SDS011;6448;48.916;8.990;2024-03-08T04:44:04;10.10;;;9.30;;
12768;SDS011;6448;48.916;8.990;2024-03-08T04:45:06;9.35;;;8.63;;
12768;SDS011;6448;48.916;8.990;2024-03-08T04:46:10;10.05;;;9.25;;
12768;SDS011;6448;48.916;8.990;2024-03-08T04:47:12;10.05;;;9.25;;
12768;SDS011;6448;48.916;8.990;2024-03-08T04:48:14;9.77;;;9.00;;
12768;SDS011;6448;48.916;8.990;2024-03-08T04:49:15;10.07;;;9.27;;
12768;SDS011;6448;48.916;8.990;2024-03-08T04:50:16;10.10;;;9.30;;
12768;SDS011;6448;48.916;8.990;2024-03-08T04:51:18;10.10;;;9.30;;
12768;SDS011;6448;48.916;8.990;2024-03-08T04:52:19;10.07;;;9.27;;
12768;SDS011;6448;48.916;8.990;2024-03-08T04:53:22;10.40;;;9.60;;
12768;SDS011;6448;48.916;8.990;2024-03-08T04:54:23;10.05;;;9.25;;
12768;SDS011;6448;48.916;8.990;2024-03-08T04:55:26;10.45;;;9.65;;
12768;SDS011;6448;48.916;8.990;2024-03-08T04:56:27;10.68;;;9.77;;
12768;SDS011;6448;48.916;8.990;2024-03-08T04:57:28;10.77;;;9.88;;
12768;SDS011;6448;48.916;8.990;2024-03-08T04:58:29;10.40;;;9.50;;
12768;SDS011;6448;48.916;8.990;2024-03-08T04:59:31;10.10;;;9.30;;
12768;SDS011;6448;48.916;8.990;2024-03-08T05:00:32;10.13;;;9.33;;
12768;SDS011;6448;48.916;8.990;2024-03-08T05:01:32;10.27;;;9.47;;
12768;SDS011;6448;48.916;8.990;2024-03-08T05:02:36;10.23;;;9.43;;
12768;SDS011;6448;48.916;8.990;2024-03-08T05:03:38;10.80;;;9.90;;
12768;SDS011;6448;48.916;8.990;2024-03-08T05:04:40;10.55;;;9.75;;
12768;SDS011;6448;48.916;8.990;2024-03-08T05:05:42;10.50;;;9.60;;
12768;SDS011;6448;48.916;8.990;2024-03-08T05:06:44;10.38;;;9.57;;
12768;SDS011;6448;48.916;8.990;2024-03-08T05:07:44;10.30;;;9.40;;
12768;SDS011;6448;48.916;8.990;2024-03-08T05:08:46;10.15;;;9.35;;
12768;SDS011;6448;48.916;8.990;2024-03-08T05:09:47;10.20;;;9.40;;
12768;SDS011;6448;48.916;8.990;2024-03-08T05:10:53;10.10;;;9.30;;
12768;SDS011;6448;48.916;8.990;2024-03-08T05:11:54;10.30;;;9.50;;
12768;SDS011;6448;48.916;8.990;2024-03-08T05:12:56;10.43;;;9.63;;
12768;SDS011;6448;48.916;8.990;2024-03-08T05:13:57;10.25;;;9.45;;
12768;SDS011;6448;48.916;8.990;2024-03-08T05:15:00;9.98;;;9.18;;
12768;SDS011;6448;48.916;8.990;2024-03-08T05:16:01;10.35;;;9.55;;
12768;SDS011;6448;48.916;8.990;2024-03-08T05:17:03;10.82;;;9.93;;
12768;SDS011;6448;48.916;8.990;2024-03-08T05:18:06;10.25;;;9.45;;
12768;SDS011;6448;48.916;8.990;2024-03-08T05:19:11;9.80;;;9.00;;
12768;SDS011;6448;48.916;8.990;2024-03-08T05:20:12;10.87;;;9.97;;
12768;SDS011;6448;48.916;8.990;2024-03-08T05:21:13;10.20;;;9.40;;
12768;SDS011;6448;48.916;8.990;2024-03-08T05:22:17;10.27;;;9.48;;
12768;SDS011;6448;48.916;8.990;2024-03-08T05:23:19;10.35;;;9.50;;
12768;SDS011;6448;48.916;8.990;2024-03-08T05:24:20;10.40;;;9.60;;
12768;SDS011;6448;48.916;8.990;2024-03-08T05:25:21;10.43;;;9.63;;
12768;SDS011;6448;48.916;8.990;2024-03-08T05:26:23;10.23;;;9.43;;
12768;SDS011;6448;48.916;8.990;2024-03-08T05:27:25;10.80;;;9.90;;
12768;SDS011;6448;48.916;8.990;2024-03-08T05:28:26;10.87;;;9.97;;
12768;SDS011;6448;48.916;8.990;2024-03-08T05:29:27;11.07;;;10.17;;
12768;SDS011;6448;48.916;8.990;2024-03-08T05:30:28;10.35;;;9.55;;
12768;SDS011;6448;48.916;8.990;2024-03-08T05:31:30;10.13;;;9.32;;
12768;SDS011;6448;48.916;8.990;2024-03-08T05:32:36;10.18;;;9.38;;
12768;SDS011;6448;48.916;8.990;2024-03-08T05:33:37;11.00;;;10.10;;
12768;SDS011;6448;48.916;8.990;2024-03-08T05:34:39;10.57;;;9.75;;
12768;SDS011;6448;48.916;8.990;2024-03-08T05:35:39;10.30;;;9.50;;
12768;SDS011;6448;48.916;8.990;2024-03-08T05:36:40;10.50;;;9.70;;
12768;SDS011;6448;48.916;8.990;2024-03-08T05:37:44;10.25;;;9.45;;
12768;SDS011;6448;48.916;8.990;2024-03-08T05:38:45;10.00;;;9.20;;
12768;SDS011;6448;48.916;8.990;2024-03-08T05:39:45;10.07;;;9.27;;
12768;SDS011;6448;48.916;8.990;2024-03-08T05:40:47;9.73;;;8.93;;
12768;SDS011;6448;48.916;8.990;2024-03-08T05:41:49;10.60;;;9.70;;
12768;SDS011;6448;48.916;8.990;2024-03-08T05:42:51;9.75;;;8.95;;
12768;SDS011;6448;48.916;8.990;2024-03-08T05:43:52;9.93;;;9.13;;
12768;SDS011;6448;48.916;8.990;2024-03-08T05:44:53;10.48;;;9.68;;
12768;SDS011;6448;48.916;8.990;2024-03-08T05:45:57;10.50;;;9.70;;
12768;SDS011;6448;48.916;8.990;2024-03-08T05:46:58;10.20;;;9.40;;
12768;SDS011;6448;48.916;8.990;2024-03-08T05:48:00;10.25;;;9.45;;
12768;SDS011;6448;48.916;8.990;2024-03-08T05:49:01;10.40;;;9.60;;
12768;SDS011;6448;48.916;8.990;2024-03-08T05:50:05;9.80;;;9.00;;
12768;SDS011;6448;48.916;8.990;2024-03-08T05:51:08;9.95;;;9.15;;
12768;SDS011;6448;48.916;8.990;2024-03-08T05:52:10;10.30;;;9.50;;
12768;SDS011;6448;48.916;8.990;2024-03-08T05:53:10;10.23;;;9.43;;
12768;SDS011;6448;48.916;8.990;2024-03-08T05:54:11;9.77;;;8.98;;
12768;SDS011;6448;48.916;8.990;2024-03-08T05:55:14;9.90;;;9.10;;
12768;SDS011;6448;48.916;8.990;2024-03-08T05:56:14;10.13;;;9.32;;
12768;SDS011;6448;48.916;8.990;2024-03-08T05:57:17;10.23;;;9.43;;
12768;SDS011;6448;48.916;8.990;2024-03-08T05:58:19;10.10;;;9.20;;
12768;SDS011;6448;48.916;8.990;2024-03-08T05:59:20;10.07;;;9.27;;
12768;SDS011;6448;48.916;8.990;2024-03-08T06:00:23;10.00;;;9.20;;
12768;SDS011;6448;48.916;8.990;2024-03-08T06:01:26;10.60;;;9.80;;
12768;SDS011;6448;48.916;8.990;2024-03-08T06:02:27;9.80;;;9.00;;
12768;SDS011;6448;48.916;8.990;2024-03-08T06:03:28;10.13;;;9.30;;
12768;SDS011;6448;48.916;8.990;2024-03-08T06:04:30;10.23;;;9.43;;
12768;SDS011;6448;48.916;8.990;2024-03-08T06:05:31;10.85;;;9.95;;
12768;SDS011;6448;48.916;8.990;2024-03-08T06:06:33;10.65;;;9.85;;
12768;SDS011;6448;48.916;8.990;2024-03-08T06:07:34;10.40;;;9.50;;
12768;SDS011;6448;48.916;8.990;2024-03-08T06:08:34;10.32;;;9.52;;
12768;SDS011;6448;48.916;8.990;2024-03-08T06:09:36;10.00;;;9.20;;
12768;SDS011;6448;48.916;8.990;2024-03-08T06:10:37;10.43;;;9.63;;
12768;SDS011;6448;48.916;8.990;2024-03-08T06:11:39;10.20;;;9.40;;
12768;SDS011;6448;48.916;8.990;2024-03-08T06:12:41;10.40;;;9.50;;